Brownsburg, Indiana
Current Conditions -  °F | °C
As of 4:53 AM on Saturday 01 Nov 2014 (Local Time) from KEYE Reporting Station
Overcast Overcast  
Wind Chill: 21°   Ceiling: 5500
Heat Index: 32°   Visibility: 10mi
Dew Point: 22°   Wind: 17mph
Humidity: 66%   Direction: 350°N
Pressure: 30.22"   Gusts: 33mph
Location:  39.84°N, 86.4°W
Report Text: KEYE 010853Z AUTO 35015G29KT 10SM OVC055 00/M06 A3022 RMK AO2 PK WND 35029/0846 SLP239 T00001056 53009
Loading
Personal Weather Stations






























Interactive Weather Map
Tropical Storm Tracking
New forecast layout! Learn more

10-Day Weather Forecast

Advertisements
Track Severe Weather on mobile